sensor_id;sensor_type;location;lat;lon;timestamp;temperature;humidity
34837;DHT22;21053;50.848;4.652;2023-04-24T00:00:17;11.10;99.90
34837;DHT22;21053;50.848;4.652;2023-04-24T00:02:46;11.10;99.90
34837;DHT22;21053;50.848;4.652;2023-04-24T00:05:14;11.00;99.90
34837;DHT22;21053;50.848;4.652;2023-04-24T00:07:45;11.00;99.90
34837;DHT22;21053;50.848;4.652;2023-04-24T00:10:12;10.90;99.90
34837;DHT22;21053;50.848;4.652;2023-04-24T00:12:41;10.90;99.90
34837;DHT22;21053;50.848;4.652;2023-04-24T00:15:09;11.00;99.90
34837;DHT22;21053;50.848;4.652;2023-04-24T00:17:35;11.00;99.90
34837;DHT22;21053;50.848;4.652;2023-04-24T00:20:01;11.00;99.90
34837;DHT22;21053;50.848;4.652;2023-04-24T00:22:31;10.90;99.90
34837;DHT22;21053;50.848;4.652;2023-04-24T00:25:00;11.00;99.90
34837;DHT22;21053;50.848;4.652;2023-04-24T00:27:49;10.90;99.90
34837;DHT22;21053;50.848;4.652;2023-04-24T00:30:14;10.90;99.90
34837;DHT22;21053;50.848;4.652;2023-04-24T00:32:41;10.80;99.90
34837;DHT22;21053;50.848;4.652;2023-04-24T00:35:10;10.80;99.90
34837;DHT22;21053;50.848;4.652;2023-04-24T00:37:37;10.80;99.90
34837;DHT22;21053;50.848;4.652;2023-04-24T00:40:04;10.90;99.90
34837;DHT22;21053;50.848;4.652;2023-04-24T00:42:31;11.00;99.90
34837;DHT22;21053;50.848;4.652;2023-04-24T00:45:00;11.00;99.90
34837;DHT22;21053;50.848;4.652;2023-04-24T00:47:26;10.80;99.90
34837;DHT22;21053;50.848;4.652;2023-04-24T00:49:53;10.80;99.90
34837;DHT22;21053;50.848;4.652;2023-04-24T00:52:21;10.90;99.90
34837;DHT22;21053;50.848;4.652;2023-04-24T00:54:52;10.90;99.90
34837;DHT22;21053;50.848;4.652;2023-04-24T00:57:18;10.80;99.90
34837;DHT22;21053;50.848;4.652;2023-04-24T00:59:46;10.90;99.90
34837;DHT22;21053;50.848;4.652;2023-04-24T01:02:15;10.80;99.90
34837;DHT22;21053;50.848;4.652;2023-04-24T01:04:44;10.80;99.90
34837;DHT22;21053;50.848;4.652;2023-04-24T01:07:10;10.80;99.90
34837;DHT22;21053;50.848;4.652;2023-04-24T01:09:48;10.90;99.90
34837;DHT22;21053;50.848;4.652;2023-04-24T01:12:16;10.80;99.90
34837;DHT22;21053;50.848;4.652;2023-04-24T01:14:42;10.80;99.90
34837;DHT22;21053;50.848;4.652;2023-04-24T01:17:09;10.80;99.90
34837;DHT22;21053;50.848;4.652;2023-04-24T01:19:38;10.90;99.90
34837;DHT22;21053;50.848;4.652;2023-04-24T01:22:10;10.80;99.90
34837;DHT22;21053;50.848;4.652;2023-04-24T01:24:37;10.90;99.90
34837;DHT22;21053;50.848;4.652;2023-04-24T01:27:04;10.70;99.90
34837;DHT22;21053;50.848;4.652;2023-04-24T01:29:30;10.80;99.90
34837;DHT22;21053;50.848;4.652;2023-04-24T01:32:03;10.80;99.90
34837;DHT22;21053;50.848;4.652;2023-04-24T01:34:31;10.90;99.90
34837;DHT22;21053;50.848;4.652;2023-04-24T01:36:58;10.80;99.90
34837;DHT22;21053;50.848;4.652;2023-04-24T01:39:24;10.80;99.90
34837;DHT22;21053;50.848;4.652;2023-04-24T01:41:54;10.80;99.90
34837;DHT22;21053;50.848;4.652;2023-04-24T01:44:20;10.80;99.90
34837;DHT22;21053;50.848;4.652;2023-04-24T01:46:49;10.70;99.90
34837;DHT22;21053;50.848;4.652;2023-04-24T01:49:17;10.70;99.90
34837;DHT22;21053;50.848;4.652;2023-04-24T01:51:55;10.40;99.90
34837;DHT22;21053;50.848;4.652;2023-04-24T01:54:22;10.20;99.90
34837;DHT22;21053;50.848;4.652;2023-04-24T01:56:50;10.30;99.90
34837;DHT22;21053;50.848;4.652;2023-04-24T01:59:17;10.30;99.90
34837;DHT22;21053;50.848;4.652;2023-04-24T02:01:47;10.40;99.90
34837;DHT22;21053;50.848;4.652;2023-04-24T02:04:17;10.40;99.90
34837;DHT22;21053;50.848;4.652;2023-04-24T02:06:45;10.40;99.90
34837;DHT22;21053;50.848;4.652;2023-04-24T02:09:14;10.30;99.90
34837;DHT22;21053;50.848;4.652;2023-04-24T02:11:41;10.30;99.90
34837;DHT22;21053;50.848;4.652;2023-04-24T02:14:09;10.20;99.90
34837;DHT22;21053;50.848;4.652;2023-04-24T02:16:38;10.20;99.90
34837;DHT22;21053;50.848;4.652;2023-04-24T02:19:07;10.10;99.90
34837;DHT22;21053;50.848;4.652;2023-04-24T02:21:35;10.20;99.90
34837;DHT22;21053;50.848;4.652;2023-04-24T02:24:01;10.20;99.90
34837;DHT22;21053;50.848;4.652;2023-04-24T02:26:29;10.10;99.90
34837;DHT22;21053;50.848;4.652;2023-04-24T02:28:58;10.20;99.90
34837;DHT22;21053;50.848;4.652;2023-04-24T02:31:24;10.20;99.90
34837;DHT22;21053;50.848;4.652;2023-04-24T02:33:53;10.30;99.90
34837;DHT22;21053;50.848;4.652;2023-04-24T02:36:20;10.20;99.90
34837;DHT22;21053;50.848;4.652;2023-04-24T02:38:46;10.10;99.90
34837;DHT22;21053;50.848;4.652;2023-04-24T02:41:15;10.20;99.90
34837;DHT22;21053;50.848;4.652;2023-04-24T02:43:40;10.20;99.90
34837;DHT22;21053;50.848;4.652;2023-04-24T02:46:08;10.20;99.90
34837;DHT22;21053;50.848;4.652;2023-04-24T02:48:37;10.30;99.90
34837;DHT22;21053;50.848;4.652;2023-04-24T02:51:05;10.30;99.90
34837;DHT22;21053;50.848;4.652;2023-04-24T02:53:35;10.20;99.90
34837;DHT22;21053;50.848;4.652;2023-04-24T02:56:03;10.20;99.90
34837;DHT22;21053;50.848;4.652;2023-04-24T02:58:33;10.30;99.90
34837;DHT22;21053;50.848;4.652;2023-04-24T03:01:02;10.30;99.90
34837;DHT22;21053;50.848;4.652;2023-04-24T03:03:31;10.20;99.90
34837;DHT22;21053;50.848;4.652;2023-04-24T03:06:03;10.10;99.90
34837;DHT22;21053;50.848;4.652;2023-04-24T03:08:34;10.10;99.90
34837;DHT22;21053;50.848;4.652;2023-04-24T03:11:02;10.10;99.90
34837;DHT22;21053;50.848;4.652;2023-04-24T03:13:31;10.00;99.90
34837;DHT22;21053;50.848;4.652;2023-04-24T03:16:00;10.00;99.90
34837;DHT22;21053;50.848;4.652;2023-04-24T03:18:26;10.10;99.90
34837;DHT22;21053;50.848;4.652;2023-04-24T03:20:51;10.10;99.90
34837;DHT22;21053;50.848;4.652;2023-04-24T03:23:20;10.10;99.90
34837;DHT22;21053;50.848;4.652;2023-04-24T03:25:49;10.00;99.90
34837;DHT22;21053;50.848;4.652;2023-04-24T03:28:18;10.00;99.90
34837;DHT22;21053;50.848;4.652;2023-04-24T03:30:46;10.10;99.90
34837;DHT22;21053;50.848;4.652;2023-04-24T03:33:14;10.10;99.90
34837;DHT22;21053;50.848;4.652;2023-04-24T03:35:42;10.10;99.90
34837;DHT22;21053;50.848;4.652;2023-04-24T03:38:09;10.20;99.90
34837;DHT22;21053;50.848;4.652;2023-04-24T03:40:35;10.30;99.90
34837;DHT22;21053;50.848;4.652;2023-04-24T03:43:02;10.20;99.90
34837;DHT22;21053;50.848;4.652;2023-04-24T03:45:37;10.00;99.90
34837;DHT22;21053;50.848;4.652;2023-04-24T03:48:03;10.10;99.90
34837;DHT22;21053;50.848;4.652;2023-04-24T03:50:29;10.10;99.90
34837;DHT22;21053;50.848;4.652;2023-04-24T03:52:55;10.10;99.90
34837;DHT22;21053;50.848;4.652;2023-04-24T03:55:21;10.00;99.90
34837;DHT22;21053;50.848;4.652;2023-04-24T03:57:47;10.10;99.90
34837;DHT22;21053;50.848;4.652;2023-04-24T04:00:13;10.00;99.90
34837;DHT22;21053;50.848;4.652;2023-04-24T04:02:42;10.00;99.90
34837;DHT22;21053;50.848;4.652;2023-04-24T04:05:14;10.00;99.90
34837;DHT22;21053;50.848;4.652;2023-04-24T04:10:45;9.90;99.90
34837;DHT22;21053;50.848;4.652;2023-04-24T04:13:14;9.80;99.90
34837;DHT22;21053;50.848;4.652;2023-04-24T04:15:41;9.80;99.90
34837;DHT22;21053;50.848;4.652;2023-04-24T04:18:09;9.80;99.90
34837;DHT22;21053;50.848;4.652;2023-04-24T04:20:37;9.80;99.90
34837;DHT22;21053;50.848;4.652;2023-04-24T04:23:03;9.80;99.90
34837;DHT22;21053;50.848;4.652;2023-04-24T04:25:30;9.80;99.90
34837;DHT22;21053;50.848;4.652;2023-04-24T04:27:59;9.80;99.90
34837;DHT22;21053;50.848;4.652;2023-04-24T04:30:28;9.60;99.90
34837;DHT22;21053;50.848;4.652;2023-04-24T04:33:03;9.70;99.90
34837;DHT22;21053;50.848;4.652;2023-04-24T04:35:32;9.80;99.90
34837;DHT22;21053;50.848;4.652;2023-04-24T04:37:58;9.80;99.90
34837;DHT22;21053;50.848;4.652;2023-04-24T04:40:25;9.80;99.90
34837;DHT22;21053;50.848;4.652;2023-04-24T04:42:52;9.80;99.90
34837;DHT22;21053;50.848;4.652;2023-04-24T04:45:19;9.90;99.90
34837;DHT22;21053;50.848;4.652;2023-04-24T04:47:46;10.00;99.90
34837;DHT22;21053;50.848;4.652;2023-04-24T04:50:12;10.00;99.90
34837;DHT22;21053;50.848;4.652;2023-04-24T04:52:38;9.90;99.90
34837;DHT22;21053;50.848;4.652;2023-04-24T04:55:04;9.80;99.90
34837;DHT22;21053;50.848;4.652;2023-04-24T04:57:33;9.70;99.90
34837;DHT22;21053;50.848;4.652;2023-04-24T05:00:04;9.70;99.90
34837;DHT22;21053;50.848;4.652;2023-04-24T05:09:16;9.50;99.90
34837;DHT22;21053;50.848;4.652;2023-04-24T05:11:46;9.50;99.90
34837;DHT22;21053;50.848;4.652;2023-04-24T05:14:19;9.50;99.90
34837;DHT22;21053;50.848;4.652;2023-04-24T05:16:46;9.70;99.90
34837;DHT22;21053;50.848;4.652;2023-04-24T05:19:23;9.70;99.90
34837;DHT22;21053;50.848;4.652;2023-04-24T05:21:49;9.60;99.90
34837;DHT22;21053;50.848;4.652;2023-04-24T05:24:15;9.60;99.90
34837;DHT22;21053;50.848;4.652;2023-04-24T05:26:41;9.50;99.90
34837;DHT22;21053;50.848;4.652;2023-04-24T05:29:10;9.50;99.90
34837;DHT22;21053;50.848;4.652;2023-04-24T05:31:35;9.30;99.90
34837;DHT22;21053;50.848;4.652;2023-04-24T05:34:04;9.30;99.90
34837;DHT22;21053;50.848;4.652;2023-04-24T05:36:31;9.30;99.90
34837;DHT22;21053;50.848;4.652;2023-04-24T05:38:59;9.30;99.90
34837;DHT22;21053;50.848;4.652;2023-04-24T05:41:25;9.20;99.90
34837;DHT22;21053;50.848;4.652;2023-04-24T05:43:51;9.30;99.90
34837;DHT22;21053;50.848;4.652;2023-04-24T05:46:17;9.40;99.90
34837;DHT22;21053;50.848;4.652;2023-04-24T05:48:43;9.40;99.90
34837;DHT22;21053;50.848;4.652;2023-04-24T05:51:09;9.30;99.90
34837;DHT22;21053;50.848;4.652;2023-04-24T05:53:35;9.30;99.90
34837;DHT22;21053;50.848;4.652;2023-04-24T05:56:01;9.20;99.90
34837;DHT22;21053;50.848;4.652;2023-04-24T05:58:27;9.20;99.90
34837;DHT22;21053;50.848;4.652;2023-04-24T06:00:52;9.20;99.90
34837;DHT22;21053;50.848;4.652;2023-04-24T06:03:19;9.20;99.90
34837;DHT22;21053;50.848;4.652;2023-04-24T06:05:45;9.20;99.90
34837;DHT22;21053;50.848;4.652;2023-04-24T06:08:11;9.20;99.90
34837;DHT22;21053;50.848;4.652;2023-04-24T06:10:37;9.10;99.90
34837;DHT22;21053;50.848;4.652;2023-04-24T06:13:04;9.10;99.90
34837;DHT22;21053;50.848;4.652;2023-04-24T06:15:30;9.20;99.90
34837;DHT22;21053;50.848;4.652;2023-04-24T06:17:57;9.20;99.90
34837;DHT22;21053;50.848;4.652;2023-04-24T06:20:23;9.10;99.90
34837;DHT22;21053;50.848;4.652;2023-04-24T06:22:49;9.10;99.90
34837;DHT22;21053;50.848;4.652;2023-04-24T06:25:14;9.10;99.90
34837;DHT22;21053;50.848;4.652;2023-04-24T06:27:40;9.20;99.90
34837;DHT22;21053;50.848;4.652;2023-04-24T06:30:06;9.30;99.90
34837;DHT22;21053;50.848;4.652;2023-04-24T06:32:32;9.20;99.90
34837;DHT22;21053;50.848;4.652;2023-04-24T06:34:59;9.20;99.90
34837;DHT22;21053;50.848;4.652;2023-04-24T06:37:25;9.20;99.90
34837;DHT22;21053;50.848;4.652;2023-04-24T06:39:52;9.20;99.90
34837;DHT22;21053;50.848;4.652;2023-04-24T06:42:18;9.20;99.90
34837;DHT22;21053;50.848;4.652;2023-04-24T06:44:46;9.30;99.90
34837;DHT22;21053;50.848;4.652;2023-04-24T06:47:12;9.30;99.90
34837;DHT22;21053;50.848;4.652;2023-04-24T06:49:41;9.40;99.90
34837;DHT22;21053;50.848;4.652;2023-04-24T06:52:07;9.20;99.90
34837;DHT22;21053;50.848;4.652;2023-04-24T06:54:33;9.30;99.90
34837;DHT22;21053;50.848;4.652;2023-04-24T06:57:00;9.20;99.90
34837;DHT22;21053;50.848;4.652;2023-04-24T06:59:29;9.30;99.90
34837;DHT22;21053;50.848;4.652;2023-04-24T07:01:56;9.40;99.90
34837;DHT22;21053;50.848;4.652;2023-04-24T07:04:23;9.50;99.90
34837;DHT22;21053;50.848;4.652;2023-04-24T07:06:50;9.40;99.90
34837;DHT22;21053;50.848;4.652;2023-04-24T07:09:16;9.60;99.90
34837;DHT22;21053;50.848;4.652;2023-04-24T07:11:44;9.60;99.90
34837;DHT22;21053;50.848;4.652;2023-04-24T07:14:12;9.60;99.90
34837;DHT22;21053;50.848;4.652;2023-04-24T07:16:39;9.50;99.90
34837;DHT22;21053;50.848;4.652;2023-04-24T07:19:05;9.70;99.90
34837;DHT22;21053;50.848;4.652;2023-04-24T07:21:31;9.60;99.90
34837;DHT22;21053;50.848;4.652;2023-04-24T07:23:58;9.60;99.90
34837;DHT22;21053;50.848;4.652;2023-04-24T07:26:24;9.70;99.90
34837;DHT22;21053;50.848;4.652;2023-04-24T07:28:51;9.70;99.90
34837;DHT22;21053;50.848;4.652;2023-04-24T07:31:16;9.60;99.90
34837;DHT22;21053;50.848;4.652;2023-04-24T07:33:42;9.50;99.90
34837;DHT22;21053;50.848;4.652;2023-04-24T07:36:08;9.60;99.90
34837;DHT22;21053;50.848;4.652;2023-04-24T07:38:33;9.70;99.90
34837;DHT22;21053;50.848;4.652;2023-04-24T07:40:59;9.60;99.90
34837;DHT22;21053;50.848;4.652;2023-04-24T07:43:25;9.60;99.90
34837;DHT22;21053;50.848;4.652;2023-04-24T07:45:51;9.50;99.90
34837;DHT22;21053;50.848;4.652;2023-04-24T07:48:17;9.60;99.90
34837;DHT22;21053;50.848;4.652;2023-04-24T07:50:44;9.60;99.90
34837;DHT22;21053;50.848;4.652;2023-04-24T07:53:10;9.50;99.90
34837;DHT22;21053;50.848;4.652;2023-04-24T07:55:37;9.60;99.90
34837;DHT22;21053;50.848;4.652;2023-04-24T07:58:04;9.50;99.90
34837;DHT22;21053;50.848;4.652;2023-04-24T08:00:29;9.50;99.90
34837;DHT22;21053;50.848;4.652;2023-04-24T08:02:55;9.60;99.90
34837;DHT22;21053;50.848;4.652;2023-04-24T08:05:21;9.70;99.90
34837;DHT22;21053;50.848;4.652;2023-04-24T08:07:46;9.80;99.90
34837;DHT22;21053;50.848;4.652;2023-04-24T08:10:14;10.00;99.90
34837;DHT22;21053;50.848;4.652;2023-04-24T08:12:41;10.80;99.90
34837;DHT22;21053;50.848;4.652;2023-04-24T08:15:07;11.20;99.90
34837;DHT22;21053;50.848;4.652;2023-04-24T08:17:35;12.00;99.90
34837;DHT22;21053;50.848;4.652;2023-04-24T08:20:02;12.40;99.90
34837;DHT22;21053;50.848;4.652;2023-04-24T08:22:28;12.80;99.90
34837;DHT22;21053;50.848;4.652;2023-04-24T08:24:55;13.80;99.90
34837;DHT22;21053;50.848;4.652;2023-04-24T08:27:23;14.60;99.90
34837;DHT22;21053;50.848;4.652;2023-04-24T08:29:49;14.00;99.90
34837;DHT22;21053;50.848;4.652;2023-04-24T08:32:15;13.40;99.90
34837;DHT22;21053;50.848;4.652;2023-04-24T08:34:41;12.50;99.90
34837;DHT22;21053;50.848;4.652;2023-04-24T08:37:06;12.20;99.90
34837;DHT22;21053;50.848;4.652;2023-04-24T08:39:32;12.00;99.90
34837;DHT22;21053;50.848;4.652;2023-04-24T08:41:59;12.00;99.90
34837;DHT22;21053;50.848;4.652;2023-04-24T08:44:32;12.20;99.90
34837;DHT22;21053;50.848;4.652;2023-04-24T08:46:58;12.30;99.90
34837;DHT22;21053;50.848;4.652;2023-04-24T08:49:25;12.70;99.90
34837;DHT22;21053;50.848;4.652;2023-04-24T08:51:53;13.10;99.90
34837;DHT22;21053;50.848;4.652;2023-04-24T08:54:19;14.30;99.90
34837;DHT22;21053;50.848;4.652;2023-04-24T08:56:47;15.50;99.90
34837;DHT22;21053;50.848;4.652;2023-04-24T08:59:14;16.00;99.90
34837;DHT22;21053;50.848;4.652;2023-04-24T09:01:41;15.70;99.90
34837;DHT22;21053;50.848;4.652;2023-04-24T09:04:08;14.70;99.90
34837;DHT22;21053;50.848;4.652;2023-04-24T09:06:39;13.70;99.90
34837;DHT22;21053;50.848;4.652;2023-04-24T09:09:05;13.00;99.90
34837;DHT22;21053;50.848;4.652;2023-04-24T09:11:32;12.70;99.90
34837;DHT22;21053;50.848;4.652;2023-04-24T09:14:00;12.60;99.90
34837;DHT22;21053;50.848;4.652;2023-04-24T09:16:27;13.00;99.90
34837;DHT22;21053;50.848;4.652;2023-04-24T09:18:53;13.20;99.90
34837;DHT22;21053;50.848;4.652;2023-04-24T09:21:21;13.50;99.90
34837;DHT22;21053;50.848;4.652;2023-04-24T09:24:01;14.40;99.90
34837;DHT22;21053;50.848;4.652;2023-04-24T09:26:31;17.10;99.90
34837;DHT22;21053;50.848;4.652;2023-04-24T09:28:58;17.60;96.20
34837;DHT22;21053;50.848;4.652;2023-04-24T09:31:24;18.80;93.80
34837;DHT22;21053;50.848;4.652;2023-04-24T09:33:55;19.90;91.30
34837;DHT22;21053;50.848;4.652;2023-04-24T09:36:32;20.60;84.70
34837;DHT22;21053;50.848;4.652;2023-04-24T09:39:03;19.40;88.10
34837;DHT22;21053;50.848;4.652;2023-04-24T09:41:30;18.00;91.20
34837;DHT22;21053;50.848;4.652;2023-04-24T09:44:10;16.50;92.30
34837;DHT22;21053;50.848;4.652;2023-04-24T09:46:37;15.40;93.20
34837;DHT22;21053;50.848;4.652;2023-04-24T09:49:10;14.40;95.60
34837;DHT22;21053;50.848;4.652;2023-04-24T09:51:37;13.90;96.10
34837;DHT22;21053;50.848;4.652;2023-04-24T09:54:05;13.50;97.50
34837;DHT22;21053;50.848;4.652;2023-04-24T09:56:36;13.50;98.30
34837;DHT22;21053;50.848;4.652;2023-04-24T09:59:06;13.20;99.20
34837;DHT22;21053;50.848;4.652;2023-04-24T10:01:32;13.00;99.40
34837;DHT22;21053;50.848;4.652;2023-04-24T10:03:58;13.00;98.20
34837;DHT22;21053;50.848;4.652;2023-04-24T10:06:33;12.90;98.20
34837;DHT22;21053;50.848;4.652;2023-04-24T10:09:02;13.10;98.90
34837;DHT22;21053;50.848;4.652;2023-04-24T10:11:30;13.90;98.00
34837;DHT22;21053;50.848;4.652;2023-04-24T10:13:56;14.90;95.30
34837;DHT22;21053;50.848;4.652;2023-04-24T10:16:23;14.70;94.10
34837;DHT22;21053;50.848;4.652;2023-04-24T10:18:49;14.70;95.20
34837;DHT22;21053;50.848;4.652;2023-04-24T10:21:18;14.60;95.90
34837;DHT22;21053;50.848;4.652;2023-04-24T10:23:44;15.00;95.00
34837;DHT22;21053;50.848;4.652;2023-04-24T10:26:16;16.40;91.60
34837;DHT22;21053;50.848;4.652;2023-04-24T10:28:47;16.10;91.10
34837;DHT22;21053;50.848;4.652;2023-04-24T10:31:14;15.20;92.00
34837;DHT22;21053;50.848;4.652;2023-04-24T10:33:42;14.70;94.20
34837;DHT22;21053;50.848;4.652;2023-04-24T10:36:10;14.60;94.90
34837;DHT22;21053;50.848;4.652;2023-04-24T10:38:37;14.70;96.00
34837;DHT22;21053;50.848;4.652;2023-04-24T10:41:12;15.70;94.30
34837;DHT22;21053;50.848;4.652;2023-04-24T10:43:45;15.60;92.80
34837;DHT22;21053;50.848;4.652;2023-04-24T10:46:19;15.30;94.00
34837;DHT22;21053;50.848;4.652;2023-04-24T10:48:53;14.80;94.20
34837;DHT22;21053;50.848;4.652;2023-04-24T10:51:23;14.30;93.70
34837;DHT22;21053;50.848;4.652;2023-04-24T10:53:52;14.00;95.40
34837;DHT22;21053;50.848;4.652;2023-04-24T10:56:21;14.20;94.20
34837;DHT22;21053;50.848;4.652;2023-04-24T10:58:53;15.00;93.90
34837;DHT22;21053;50.848;4.652;2023-04-24T11:01:29;15.70;93.10
34837;DHT22;21053;50.848;4.652;2023-04-24T11:03:57;15.80;90.80
34837;DHT22;21053;50.848;4.652;2023-04-24T11:06:34;15.90;92.00
34837;DHT22;21053;50.848;4.652;2023-04-24T11:09:08;15.70;91.40
34837;DHT22;21053;50.848;4.652;2023-04-24T11:11:36;15.70;92.40
34837;DHT22;21053;50.848;4.652;2023-04-24T11:14:04;16.00;89.70
34837;DHT22;21053;50.848;4.652;2023-04-24T11:19:25;15.00;91.60
34837;DHT22;21053;50.848;4.652;2023-04-24T11:24:50;14.30;92.90
34837;DHT22;21053;50.848;4.652;2023-04-24T11:27:20;14.10;94.20
34837;DHT22;21053;50.848;4.652;2023-04-24T11:35:00;14.80;94.60
34837;DHT22;21053;50.848;4.652;2023-04-24T11:37:29;14.90;92.10
34837;DHT22;21053;50.848;4.652;2023-04-24T11:39:56;14.70;92.20
34837;DHT22;21053;50.848;4.652;2023-04-24T11:42:24;14.60;94.10
34837;DHT22;21053;50.848;4.652;2023-04-24T11:44:53;14.30;92.50
34837;DHT22;21053;50.848;4.652;2023-04-24T11:47:19;14.30;93.00
34837;DHT22;21053;50.848;4.652;2023-04-24T11:49:46;14.30;92.40
34837;DHT22;21053;50.848;4.652;2023-04-24T11:52:15;14.40;92.40
34837;DHT22;21053;50.848;4.652;2023-04-24T11:54:49;14.60;93.10
34837;DHT22;21053;50.848;4.652;2023-04-24T11:57:24;14.80;92.30
34837;DHT22;21053;50.848;4.652;2023-04-24T11:59:54;15.10;93.10
34837;DHT22;21053;50.848;4.652;2023-04-24T12:02:27;15.00;92.50
34837;DHT22;21053;50.848;4.652;2023-04-24T12:04:54;14.90;92.80
34837;DHT22;21053;50.848;4.652;2023-04-24T12:07:20;14.90;91.60
34837;DHT22;21053;50.848;4.652;2023-04-24T12:09:55;14.90;91.10
34837;DHT22;21053;50.848;4.652;2023-04-24T12:12:25;15.20;91.70
34837;DHT22;21053;50.848;4.652;2023-04-24T12:14:58;15.30;90.90
34837;DHT22;21053;50.848;4.652;2023-04-24T12:17:29;15.30;93.60
34837;DHT22;21053;50.848;4.652;2023-04-24T12:20:06;15.40;93.50
34837;DHT22;21053;50.848;4.652;2023-04-24T12:22:53;15.30;91.60
34837;DHT22;21053;50.848;4.652;2023-04-24T12:25:21;15.30;93.30
34837;DHT22;21053;50.848;4.652;2023-04-24T12:27:53;15.40;91.60
34837;DHT22;21053;50.848;4.652;2023-04-24T12:30:20;15.60;90.60
34837;DHT22;21053;50.848;4.652;2023-04-24T12:32:49;15.70;91.40
34837;DHT22;21053;50.848;4.652;2023-04-24T12:35:22;15.30;90.90
34837;DHT22;21053;50.848;4.652;2023-04-24T12:37:48;14.90;92.60
34837;DHT22;21053;50.848;4.652;2023-04-24T12:40:15;14.80;92.10
34837;DHT22;21053;50.848;4.652;2023-04-24T12:42:45;14.90;92.30
34837;DHT22;21053;50.848;4.652;2023-04-24T12:45:11;15.10;93.70
34837;DHT22;21053;50.848;4.652;2023-04-24T12:47:38;15.30;92.20
34837;DHT22;21053;50.848;4.652;2023-04-24T12:50:05;15.60;91.60
34837;DHT22;21053;50.848;4.652;2023-04-24T12:52:31;15.60;89.30
34837;DHT22;21053;50.848;4.652;2023-04-24T12:55:00;15.70;88.70
34837;DHT22;21053;50.848;4.652;2023-04-24T12:57:30;15.80;89.40
34837;DHT22;21053;50.848;4.652;2023-04-24T12:59:58;15.70;90.30
34837;DHT22;21053;50.848;4.652;2023-04-24T13:02:27;15.70;91.80
34837;DHT22;21053;50.848;4.652;2023-04-24T13:04:54;16.30;91.80
34837;DHT22;21053;50.848;4.652;2023-04-24T13:07:20;16.20;90.70
34837;DHT22;21053;50.848;4.652;2023-04-24T13:09:48;15.70;91.70
34837;DHT22;21053;50.848;4.652;2023-04-24T13:12:15;15.50;90.80
34837;DHT22;21053;50.848;4.652;2023-04-24T13:14:41;15.50;90.20
34837;DHT22;21053;50.848;4.652;2023-04-24T13:17:08;15.70;91.30
34837;DHT22;21053;50.848;4.652;2023-04-24T13:19:39;15.30;91.60
34837;DHT22;21053;50.848;4.652;2023-04-24T13:22:05;15.40;91.00
34837;DHT22;21053;50.848;4.652;2023-04-24T13:24:31;15.40;89.80
34837;DHT22;21053;50.848;4.652;2023-04-24T13:26:58;15.10;90.00
34837;DHT22;21053;50.848;4.652;2023-04-24T13:29:23;14.80;90.70
34837;DHT22;21053;50.848;4.652;2023-04-24T13:31:53;14.70;90.50
34837;DHT22;21053;50.848;4.652;2023-04-24T13:34:23;14.90;90.90
34837;DHT22;21053;50.848;4.652;2023-04-24T13:36:53;15.00;91.10
34837;DHT22;21053;50.848;4.652;2023-04-24T13:39:20;15.20;89.50
34837;DHT22;21053;50.848;4.652;2023-04-24T13:41:46;15.40;88.20
34837;DHT22;21053;50.848;4.652;2023-04-24T13:44:14;15.70;89.80
34837;DHT22;21053;50.848;4.652;2023-04-24T13:46:40;15.90;90.80
34837;DHT22;21053;50.848;4.652;2023-04-24T13:49:06;16.10;89.50
34837;DHT22;21053;50.848;4.652;2023-04-24T13:51:32;16.10;89.80
34837;DHT22;21053;50.848;4.652;2023-04-24T13:53:58;16.20;87.50
34837;DHT22;21053;50.848;4.652;2023-04-24T13:56:26;16.10;90.60
34837;DHT22;21053;50.848;4.652;2023-04-24T13:58:52;15.70;90.40
34837;DHT22;21053;50.848;4.652;2023-04-24T14:01:19;15.40;90.70
34837;DHT22;21053;50.848;4.652;2023-04-24T14:03:46;15.30;91.50
34837;DHT22;21053;50.848;4.652;2023-04-24T14:06:11;15.20;91.20
34837;DHT22;21053;50.848;4.652;2023-04-24T14:08:37;15.10;90.80
34837;DHT22;21053;50.848;4.652;2023-04-24T14:11:03;15.20;90.10
34837;DHT22;21053;50.848;4.652;2023-04-24T14:13:29;15.40;88.50
34837;DHT22;21053;50.848;4.652;2023-04-24T14:15:55;15.30;89.60
34837;DHT22;21053;50.848;4.652;2023-04-24T14:18:21;15.20;90.40
34837;DHT22;21053;50.848;4.652;2023-04-24T14:20:47;15.10;91.70
34837;DHT22;21053;50.848;4.652;2023-04-24T14:23:13;15.20;91.40
34837;DHT22;21053;50.848;4.652;2023-04-24T14:25:38;15.10;91.40
34837;DHT22;21053;50.848;4.652;2023-04-24T14:28:06;14.80;91.50
34837;DHT22;21053;50.848;4.652;2023-04-24T14:30:32;15.10;91.20
34837;DHT22;21053;50.848;4.652;2023-04-24T14:32:57;15.00;91.60
34837;DHT22;21053;50.848;4.652;2023-04-24T14:35:26;15.20;92.10
34837;DHT22;21053;50.848;4.652;2023-04-24T14:37:52;15.40;90.50
34837;DHT22;21053;50.848;4.652;2023-04-24T14:40:17;15.40;90.40
34837;DHT22;21053;50.848;4.652;2023-04-24T14:42:43;15.20;90.20
34837;DHT22;21053;50.848;4.652;2023-04-24T14:45:15;15.10;90.70
34837;DHT22;21053;50.848;4.652;2023-04-24T14:47:41;14.80;90.90
34837;DHT22;21053;50.848;4.652;2023-04-24T14:50:07;14.80;91.40
34837;DHT22;21053;50.848;4.652;2023-04-24T14:52:33;14.70;90.30
34837;DHT22;21053;50.848;4.652;2023-04-24T14:54:59;14.70;91.30
34837;DHT22;21053;50.848;4.652;2023-04-24T14:57:25;14.70;91.30
34837;DHT22;21053;50.848;4.652;2023-04-24T14:59:51;14.50;91.70
34837;DHT22;21053;50.848;4.652;2023-04-24T15:02:17;14.60;91.30
34837;DHT22;21053;50.848;4.652;2023-04-24T15:04:43;14.50;91.80
34837;DHT22;21053;50.848;4.652;2023-04-24T15:07:08;14.50;91.70
34837;DHT22;21053;50.848;4.652;2023-04-24T15:09:34;14.40;91.20
34837;DHT22;21053;50.848;4.652;2023-04-24T15:12:00;14.20;91.60
34837;DHT22;21053;50.848;4.652;2023-04-24T15:14:27;14.20;91.90
34837;DHT22;21053;50.848;4.652;2023-04-24T15:16:53;14.10;91.60
34837;DHT22;21053;50.848;4.652;2023-04-24T15:19:18;14.20;91.90
34837;DHT22;21053;50.848;4.652;2023-04-24T15:21:44;14.20;92.40
34837;DHT22;21053;50.848;4.652;2023-04-24T15:24:10;14.40;92.10
34837;DHT22;21053;50.848;4.652;2023-04-24T15:26:36;14.40;91.50
34837;DHT22;21053;50.848;4.652;2023-04-24T15:29:02;14.40;91.50
34837;DHT22;21053;50.848;4.652;2023-04-24T15:31:30;14.20;92.00
34837;DHT22;21053;50.848;4.652;2023-04-24T15:33:59;14.20;91.20
34837;DHT22;21053;50.848;4.652;2023-04-24T15:39:02;14.30;91.00
34837;DHT22;21053;50.848;4.652;2023-04-24T15:41:31;14.20;91.20
34837;DHT22;21053;50.848;4.652;2023-04-24T15:44:00;14.00;91.00
34837;DHT22;21053;50.848;4.652;2023-04-24T15:46:26;14.20;91.50
34837;DHT22;21053;50.848;4.652;2023-04-24T15:48:54;14.00;91.20
34837;DHT22;21053;50.848;4.652;2023-04-24T15:51:23;14.10;90.30
34837;DHT22;21053;50.848;4.652;2023-04-24T15:53:50;14.00;89.70
34837;DHT22;21053;50.848;4.652;2023-04-24T15:56:18;14.00;90.50
34837;DHT22;21053;50.848;4.652;2023-04-24T15:58:48;13.80;91.70
34837;DHT22;21053;50.848;4.652;2023-04-24T16:01:16;13.80;90.90